createdAt,value
2023-08-11T00:00:39.736Z,95.74
2023-08-11T00:03:07.930Z,95.86
2023-08-11T00:05:38.627Z,95.73
2023-08-11T00:10:55.102Z,95.25
2023-08-11T00:13:23.356Z,95.23
2023-08-11T00:15:51.121Z,95.68
2023-08-11T00:18:18.941Z,95.83
2023-08-11T00:20:47.942Z,95.91
2023-08-11T00:23:17.111Z,96.43
2023-08-11T00:25:45.465Z,96.18
2023-08-11T00:28:13.163Z,96.28
2023-08-11T00:30:41.296Z,96.07
2023-08-11T00:33:09.095Z,96.22
2023-08-11T00:35:37.303Z,97.66
2023-08-11T00:38:06.052Z,98.22
2023-08-11T00:40:35.250Z,99.00
2023-08-11T00:43:03.397Z,99.09
2023-08-11T00:45:31.502Z,98.98
2023-08-11T00:47:59.974Z,98.90
2023-08-11T00:50:28.435Z,98.63
2023-08-11T00:52:56.817Z,98.44
2023-08-11T00:55:24.604Z,98.32
2023-08-11T00:57:54.122Z,97.97
2023-08-11T01:00:22.461Z,97.72
2023-08-11T01:02:50.723Z,97.43
2023-08-11T01:05:20.289Z,98.55
2023-08-11T01:07:58.296Z,99.70
2023-08-11T01:10:35.210Z,99.20
2023-08-11T01:13:14.436Z,98.75
2023-08-11T01:15:47.377Z,98.42
2023-08-11T01:18:16.559Z,98.28
2023-08-11T01:20:44.672Z,98.90
2023-08-11T01:23:20.460Z,98.51
2023-08-11T01:25:49.121Z,98.94
2023-08-11T01:28:17.098Z,99.08
2023-08-11T01:30:45.432Z,99.07
2023-08-11T01:33:13.246Z,98.36
2023-08-11T01:35:42.583Z,98.46
2023-08-11T01:38:10.964Z,98.31
2023-08-11T01:40:41.350Z,98.45
2023-08-11T01:43:12.461Z,98.38
2023-08-11T01:45:41.422Z,98.30
2023-08-11T01:48:10.796Z,99.06
2023-08-11T01:50:40.200Z,99.16
2023-08-11T01:53:09.010Z,99.02
2023-08-11T01:55:37.759Z,99.01
2023-08-11T01:58:07.620Z,99.18
2023-08-11T02:00:35.839Z,98.91
2023-08-11T02:03:03.973Z,99.27
2023-08-11T02:05:32.101Z,100.00
2023-08-11T02:08:01.386Z,100.00
2023-08-11T02:10:29.315Z,100.00
2023-08-11T02:12:57.531Z,99.94
2023-08-11T02:15:26.851Z,100.00
2023-08-11T02:17:55.313Z,100.00
2023-08-11T02:20:24.549Z,100.00
2023-08-11T02:22:54.322Z,100.00
2023-08-11T02:25:23.138Z,100.00
2023-08-11T02:27:51.314Z,100.00
2023-08-11T02:30:19.813Z,100.00
2023-08-11T02:32:49.093Z,100.00
2023-08-11T02:35:19.034Z,100.00
2023-08-11T02:37:47.195Z,100.00
2023-08-11T02:40:16.156Z,100.00
2023-08-11T02:42:49.597Z,100.00
2023-08-11T02:45:17.742Z,100.00
2023-08-11T02:47:45.497Z,100.00
2023-08-11T02:50:15.505Z,100.00
2023-08-11T02:52:43.592Z,100.00
2023-08-11T02:55:12.481Z,100.00
2023-08-11T02:57:40.607Z,100.00
2023-08-11T03:00:14.322Z,100.00
2023-08-11T03:02:42.765Z,100.00
2023-08-11T03:05:12.915Z,100.00
2023-08-11T03:07:42.934Z,100.00
2023-08-11T03:10:11.426Z,100.00
2023-08-11T03:12:39.612Z,100.00
2023-08-11T03:15:09.372Z,100.00
2023-08-11T03:17:37.908Z,100.00
2023-08-11T03:20:11.789Z,100.00
2023-08-11T03:22:39.914Z,100.00
2023-08-11T03:25:12.034Z,100.00
2023-08-11T03:27:43.706Z,100.00
2023-08-11T03:30:13.141Z,100.00
2023-08-11T03:32:41.476Z,100.00
2023-08-11T03:35:10.159Z,100.00
2023-08-11T03:37:37.914Z,100.00
2023-08-11T03:40:10.620Z,100.00
2023-08-11T03:42:39.700Z,100.00
2023-08-11T03:45:09.003Z,100.00
2023-08-11T03:47:36.791Z,100.00
2023-08-11T03:50:04.799Z,100.00
2023-08-11T03:52:33.262Z,100.00
2023-08-11T03:55:01.068Z,100.00
2023-08-11T03:57:29.232Z,100.00
2023-08-11T03:59:58.585Z,100.00
2023-08-11T04:02:27.623Z,100.00
2023-08-11T04:04:55.439Z,100.00
2023-08-11T04:07:23.557Z,100.00
2023-08-11T04:09:51.311Z,100.00
2023-08-11T04:12:19.084Z,100.00
2023-08-11T04:14:47.138Z,100.00
2023-08-11T04:17:17.669Z,100.00
2023-08-11T04:19:45.874Z,100.00
2023-08-11T04:22:15.962Z,100.00
2023-08-11T04:24:46.789Z,100.00
2023-08-11T04:27:15.327Z,100.00
2023-08-11T04:29:43.079Z,100.00
2023-08-11T04:34:40.351Z,100.00
2023-08-11T04:37:09.895Z,100.00
2023-08-11T04:39:38.138Z,100.00
2023-08-11T04:42:06.898Z,100.00
2023-08-11T04:44:35.321Z,100.00
2023-08-11T04:47:03.356Z,100.00
2023-08-11T04:49:33.007Z,100.00
2023-08-11T04:52:02.139Z,100.00
2023-08-11T04:54:30.310Z,100.00
2023-08-11T04:56:58.272Z,100.00
2023-08-11T04:59:26.530Z,100.00
2023-08-11T05:01:56.404Z,100.00
2023-08-11T05:04:24.485Z,100.00
2023-08-11T05:06:52.342Z,100.00
2023-08-11T05:09:21.970Z,100.00
2023-08-11T05:11:49.700Z,100.00
2023-08-11T05:14:18.848Z,100.00
2023-08-11T05:16:47.062Z,100.00
2023-08-11T05:19:14.845Z,100.00
2023-08-11T05:21:43.028Z,100.00
2023-08-11T05:24:11.483Z,100.00
2023-08-11T05:26:41.187Z,100.00
2023-08-11T05:29:11.890Z,100.00
2023-08-11T05:31:39.980Z,100.00
2023-08-11T05:34:10.805Z,100.00
2023-08-11T05:36:38.655Z,100.00
2023-08-11T05:39:08.180Z,100.00
2023-08-11T05:41:35.922Z,100.00
2023-08-11T05:44:06.050Z,100.00
2023-08-11T05:46:33.887Z,100.00
2023-08-11T05:49:01.654Z,100.00
2023-08-11T05:51:29.955Z,100.00
2023-08-11T05:53:57.722Z,100.00
2023-08-11T05:56:25.799Z,100.00
2023-08-11T05:58:53.591Z,100.00
2023-08-11T06:01:22.950Z,100.00
2023-08-11T06:03:50.870Z,100.00
2023-08-11T06:06:19.348Z,97.87
2023-08-11T06:08:47.560Z,93.47
2023-08-11T06:11:15.376Z,92.17
2023-08-11T06:13:44.239Z,92.54
2023-08-11T06:16:12.064Z,92.56
2023-08-11T06:18:41.702Z,93.35
2023-08-11T06:21:10.196Z,92.71
2023-08-11T06:23:38.533Z,92.78
2023-08-11T06:26:06.994Z,92.53
2023-08-11T06:28:35.260Z,92.78
2023-08-11T06:31:03.642Z,92.16
2023-08-11T06:33:31.963Z,89.37
2023-08-11T06:36:01.086Z,90.14
2023-08-11T06:38:28.890Z,90.65
2023-08-11T06:40:56.846Z,91.33
2023-08-11T06:43:24.580Z,91.21
2023-08-11T06:45:52.718Z,90.24
2023-08-11T06:48:20.509Z,89.01
2023-08-11T06:50:48.582Z,88.95
2023-08-11T06:53:18.184Z,87.75
2023-08-11T06:55:45.908Z,87.12
2023-08-11T06:58:13.985Z,88.08
2023-08-11T07:00:41.683Z,86.36
2023-08-11T07:03:09.775Z,86.83
2023-08-11T07:05:38.276Z,85.57
2023-08-11T07:08:06.945Z,84.81
2023-08-11T07:10:36.113Z,85.59
2023-08-11T07:13:04.383Z,85.73
2023-08-11T07:15:32.104Z,86.56
2023-08-11T07:18:00.215Z,84.45
2023-08-11T07:20:28.009Z,83.90
2023-08-11T07:22:55.761Z,85.09
2023-08-11T07:25:23.812Z,86.51
2023-08-11T07:27:52.844Z,87.23
2023-08-11T07:30:21.059Z,88.63
2023-08-11T07:32:48.820Z,88.74
2023-08-11T07:35:17.005Z,87.63
2023-08-11T07:37:44.749Z,86.77
2023-08-11T07:40:13.981Z,81.27
2023-08-11T07:42:42.085Z,81.88
2023-08-11T07:45:11.831Z,80.27
2023-08-11T07:47:39.886Z,81.22
2023-08-11T07:50:08.856Z,82.73
2023-08-11T07:52:36.884Z,78.83
2023-08-11T07:55:05.546Z,79.09
2023-08-11T07:57:33.784Z,79.72
2023-08-11T08:00:01.599Z,80.42
2023-08-11T08:02:31.030Z,79.11
2023-08-11T08:05:09.956Z,78.41
2023-08-11T08:07:40.359Z,78.21
2023-08-11T08:10:09.632Z,78.21
2023-08-11T08:12:38.942Z,78.75
2023-08-11T08:15:08.575Z,76.02
2023-08-11T08:17:38.597Z,76.05
2023-08-11T08:20:10.242Z,75.82
2023-08-11T08:22:38.253Z,76.81
2023-08-11T08:25:08.184Z,77.41
2023-08-11T08:27:36.345Z,72.57
2023-08-11T08:30:06.142Z,71.94
2023-08-11T08:32:34.759Z,72.27
2023-08-11T08:35:04.287Z,70.86
2023-08-11T08:37:32.959Z,70.82
2023-08-11T08:40:01.664Z,68.50
2023-08-11T08:42:30.937Z,67.87
2023-08-11T08:44:59.161Z,67.43
2023-08-11T08:47:27.858Z,67.34
2023-08-11T08:49:56.744Z,67.87
2023-08-11T08:52:26.436Z,69.58
2023-08-11T08:54:54.272Z,70.36
2023-08-11T08:57:23.185Z,66.39
2023-08-11T08:59:51.321Z,65.57
2023-08-11T09:02:20.124Z,61.97
2023-08-11T09:04:49.407Z,62.54
2023-08-11T09:07:20.220Z,63.91
2023-08-11T09:09:50.170Z,61.02
2023-08-11T09:12:18.104Z,60.63
2023-08-11T09:14:46.544Z,60.13
2023-08-11T09:17:14.772Z,55.65
2023-08-11T09:19:45.517Z,57.24
2023-08-11T09:22:13.303Z,55.17
2023-08-11T09:24:41.929Z,57.96
2023-08-11T09:27:12.699Z,61.36
2023-08-11T09:29:40.430Z,58.60
2023-08-11T09:32:09.212Z,56.79
2023-08-11T09:34:40.743Z,56.41
2023-08-11T09:37:08.823Z,58.23
2023-08-11T09:39:38.158Z,51.93
2023-08-11T09:42:06.326Z,51.51
2023-08-11T09:44:35.900Z,52.34
2023-08-11T09:47:15.407Z,53.43
2023-08-11T09:49:45.584Z,51.33
2023-08-11T09:52:14.100Z,57.14
2023-08-11T09:54:44.940Z,55.26
2023-08-11T09:57:15.684Z,54.54
2023-08-11T09:59:47.685Z,53.63
2023-08-11T10:02:23.374Z,51.86
2023-08-11T10:04:58.268Z,53.20
2023-08-11T10:07:35.619Z,55.21
2023-08-11T10:10:09.205Z,53.93
2023-08-11T10:12:42.031Z,56.03
2023-08-11T10:15:12.791Z,56.22
2023-08-11T10:17:40.960Z,56.23
2023-08-11T10:20:11.268Z,58.57
2023-08-11T10:22:39.100Z,55.30
2023-08-11T10:25:08.803Z,53.57
2023-08-11T10:27:38.897Z,55.16
2023-08-11T10:30:09.728Z,52.35
2023-08-11T10:32:40.838Z,54.80
2023-08-11T10:35:08.790Z,52.96
2023-08-11T10:37:37.198Z,52.99
2023-08-11T10:40:07.314Z,51.09
2023-08-11T10:42:37.630Z,49.85
2023-08-11T10:45:10.627Z,53.81
2023-08-11T10:47:40.474Z,56.20
2023-08-11T10:50:10.875Z,52.97
2023-08-11T10:52:38.870Z,51.29
2023-08-11T10:55:07.705Z,52.12
2023-08-11T10:57:36.726Z,50.29
2023-08-11T11:00:05.071Z,50.41
2023-08-11T11:02:36.798Z,49.30
2023-08-11T11:05:08.940Z,47.66
2023-08-11T11:07:40.016Z,49.61
2023-08-11T11:10:09.810Z,49.54
2023-08-11T11:12:37.488Z,50.01
2023-08-11T11:15:06.572Z,47.92
2023-08-11T11:17:34.453Z,48.23
2023-08-11T11:20:03.676Z,48.26
2023-08-11T11:22:33.326Z,47.22
2023-08-11T11:25:03.870Z,46.59
2023-08-11T11:27:32.640Z,47.97
2023-08-11T11:30:00.545Z,47.05
2023-08-11T11:32:29.185Z,49.23
2023-08-11T11:34:57.369Z,46.90
2023-08-11T11:37:26.210Z,48.36
2023-08-11T11:39:56.360Z,48.30
2023-08-11T11:42:24.065Z,47.92
2023-08-11T11:44:52.292Z,47.14
2023-08-11T11:47:20.142Z,46.86
2023-08-11T11:49:55.660Z,50.00
2023-08-11T11:52:23.596Z,48.11
2023-08-11T11:54:53.014Z,48.04
2023-08-11T11:57:23.338Z,52.18
2023-08-11T11:59:51.997Z,50.42
2023-08-11T12:02:21.908Z,46.90
2023-08-11T12:04:52.946Z,47.08
2023-08-11T12:07:32.094Z,48.35
2023-08-11T12:10:00.519Z,49.88
2023-08-11T12:12:30.403Z,51.57
2023-08-11T12:15:03.385Z,50.48
2023-08-11T12:17:32.634Z,50.75
2023-08-11T12:20:02.398Z,46.24
2023-08-11T12:22:30.472Z,46.92
2023-08-11T12:24:58.189Z,49.61
2023-08-11T12:27:26.738Z,47.16
2023-08-11T12:29:55.930Z,48.48
2023-08-11T12:32:24.465Z,48.66
2023-08-11T12:34:52.587Z,50.36
2023-08-11T12:37:20.749Z,46.87
2023-08-11T12:39:48.481Z,46.85
2023-08-11T12:42:16.590Z,47.90
2023-08-11T12:44:44.288Z,48.67
2023-08-11T12:47:13.653Z,48.27
2023-08-11T12:49:41.473Z,44.95
2023-08-11T12:52:09.825Z,45.34
2023-08-11T12:54:37.763Z,48.24
2023-08-11T12:57:06.283Z,48.33
2023-08-11T12:59:34.659Z,46.50
2023-08-11T13:02:02.810Z,47.73
2023-08-11T13:04:31.944Z,50.05
2023-08-11T13:07:01.008Z,49.43
2023-08-11T13:09:29.169Z,45.89
2023-08-11T13:11:57.409Z,47.74
2023-08-11T13:14:25.097Z,49.22
2023-08-11T13:16:53.105Z,47.64
2023-08-11T13:19:21.199Z,47.39
2023-08-11T13:21:50.289Z,45.53
2023-08-11T13:24:21.065Z,45.26
2023-08-11T13:26:49.201Z,44.95
2023-08-11T13:29:17.336Z,47.44
2023-08-11T13:31:45.023Z,45.16
2023-08-11T13:34:13.146Z,45.87
2023-08-11T13:36:43.285Z,46.82
2023-08-11T13:39:14.113Z,47.26
2023-08-11T13:41:42.654Z,49.59
2023-08-11T13:44:12.937Z,47.25
2023-08-11T13:46:40.822Z,51.26
2023-08-11T13:49:09.311Z,50.45
2023-08-11T13:51:37.093Z,49.83
2023-08-11T13:54:06.637Z,46.11
2023-08-11T13:56:35.927Z,44.99
2023-08-11T13:59:04.364Z,45.96
2023-08-11T14:01:32.638Z,47.17
2023-08-11T14:04:00.763Z,45.50
2023-08-11T14:06:28.453Z,45.00
2023-08-11T14:08:56.522Z,46.70
2023-08-11T14:11:25.368Z,45.77
2023-08-11T14:13:54.915Z,45.77
2023-08-11T14:16:22.692Z,46.25
2023-08-11T14:18:51.745Z,47.33
2023-08-11T14:21:20.434Z,46.99
2023-08-11T14:23:48.983Z,46.83
2023-08-11T14:26:17.617Z,45.64
2023-08-11T14:28:45.775Z,49.73
2023-08-11T14:31:14.824Z,48.80
2023-08-11T14:33:42.684Z,46.80
2023-08-11T14:36:13.448Z,48.54
2023-08-11T14:38:42.120Z,44.60
2023-08-11T14:41:10.387Z,43.92
2023-08-11T14:43:38.088Z,45.33
2023-08-11T14:46:06.265Z,45.34
2023-08-11T14:48:35.473Z,48.95
2023-08-11T14:51:03.608Z,45.01
2023-08-11T14:53:31.786Z,44.28
2023-08-11T14:56:00.115Z,47.56
2023-08-11T14:58:27.861Z,45.35
2023-08-11T15:00:57.153Z,45.56
2023-08-11T15:03:25.300Z,46.97
2023-08-11T15:05:55.010Z,47.96
2023-08-11T15:08:22.823Z,47.04
2023-08-11T15:10:51.244Z,48.52
2023-08-11T15:13:18.980Z,46.57
2023-08-11T15:15:47.147Z,47.61
2023-08-11T15:18:14.907Z,48.95
2023-08-11T15:20:43.189Z,48.02
2023-08-11T15:23:12.317Z,48.52
2023-08-11T15:25:42.561Z,47.85
2023-08-11T15:28:11.431Z,47.50
2023-08-11T15:30:39.605Z,46.62
2023-08-11T15:33:07.619Z,45.68
2023-08-11T15:35:38.634Z,46.19
2023-08-11T15:38:07.031Z,47.88
2023-08-11T15:40:36.505Z,46.97
2023-08-11T15:43:04.449Z,47.63
2023-08-11T15:45:32.575Z,47.40
2023-08-11T15:48:00.338Z,47.56
2023-08-11T15:50:28.505Z,46.95
2023-08-11T15:52:56.262Z,48.31
2023-08-11T15:55:35.745Z,51.75
2023-08-11T15:58:06.231Z,47.28
2023-08-11T16:00:34.110Z,48.33
2023-08-11T16:03:02.349Z,48.91
2023-08-11T16:05:30.111Z,49.26
2023-08-11T16:07:58.130Z,49.50
2023-08-11T16:10:27.463Z,49.33
2023-08-11T16:12:55.707Z,49.46
2023-08-11T16:15:25.047Z,50.95
2023-08-11T16:17:55.036Z,52.31
2023-08-11T16:20:23.287Z,50.57
2023-08-11T16:22:53.500Z,50.69
2023-08-11T16:25:21.699Z,50.65
2023-08-11T16:27:49.897Z,54.98
2023-08-11T16:30:17.610Z,56.17
2023-08-11T16:32:47.204Z,55.44
2023-08-11T16:35:15.045Z,52.25
2023-08-11T16:37:43.310Z,51.84
2023-08-11T16:40:12.751Z,54.78
2023-08-11T16:42:41.061Z,51.81
2023-08-11T16:45:09.525Z,53.04
2023-08-11T16:47:37.850Z,53.85
2023-08-11T16:50:08.070Z,54.10
2023-08-11T16:52:36.254Z,51.21
2023-08-11T16:55:04.583Z,51.27
2023-08-11T16:57:32.629Z,53.25
2023-08-11T17:00:00.471Z,52.83
2023-08-11T17:02:29.083Z,53.96
2023-08-11T17:04:56.930Z,55.72
2023-08-11T17:07:26.368Z,55.20
2023-08-11T17:09:54.078Z,57.39
2023-08-11T17:12:22.762Z,55.80
2023-08-11T17:14:51.607Z,57.50
2023-08-11T17:17:19.644Z,59.06
2023-08-11T17:19:47.479Z,57.83
2023-08-11T17:22:15.274Z,55.44
2023-08-11T17:24:45.131Z,57.58
2023-08-11T17:27:12.968Z,59.83
2023-08-11T17:29:42.862Z,60.73
2023-08-11T17:32:10.776Z,60.08
2023-08-11T17:34:54.113Z,60.56
2023-08-11T17:37:25.427Z,61.61
2023-08-11T17:39:55.488Z,62.68
2023-08-11T17:42:23.213Z,62.04
2023-08-11T17:44:51.337Z,63.80
2023-08-11T17:47:19.036Z,64.31
2023-08-11T17:49:47.230Z,63.38
2023-08-11T17:52:14.960Z,64.51
2023-08-11T17:54:43.147Z,65.07
2023-08-11T17:57:12.242Z,64.88
2023-08-11T17:59:40.348Z,65.35
2023-08-11T18:02:08.301Z,66.04
2023-08-11T18:04:37.363Z,66.80
2023-08-11T18:07:05.421Z,68.54
2023-08-11T18:09:33.486Z,69.39
2023-08-11T18:12:01.180Z,69.93
2023-08-11T18:14:32.912Z,69.03
2023-08-11T18:17:00.738Z,69.17
2023-08-11T18:19:29.033Z,69.57
2023-08-11T18:21:56.743Z,68.88
2023-08-11T18:24:24.983Z,69.68
2023-08-11T18:26:52.719Z,69.92
2023-08-11T18:29:20.972Z,70.70
2023-08-11T18:31:50.111Z,71.17
2023-08-11T18:34:18.291Z,71.97
2023-08-11T18:36:45.992Z,72.92
2023-08-11T18:39:14.397Z,73.95
2023-08-11T18:41:42.188Z,74.92
2023-08-11T18:44:09.945Z,75.28
2023-08-11T18:46:38.348Z,75.61
2023-08-11T18:49:07.868Z,75.31
2023-08-11T18:51:36.000Z,75.90
2023-08-11T18:54:03.864Z,75.04
2023-08-11T18:56:32.091Z,74.51
2023-08-11T18:58:59.842Z,76.16
2023-08-11T19:01:28.178Z,76.81
2023-08-11T19:03:56.286Z,75.63
2023-08-11T19:06:25.955Z,76.74
2023-08-11T19:08:53.726Z,77.15
2023-08-11T19:11:24.007Z,77.58
2023-08-11T19:13:51.807Z,77.70
2023-08-11T19:16:19.996Z,78.75
2023-08-11T19:18:48.539Z,79.14
2023-08-11T19:21:16.628Z,77.99
2023-08-11T19:23:45.783Z,77.33
2023-08-11T19:26:13.886Z,77.93
2023-08-11T19:28:41.711Z,78.75
2023-08-11T19:31:09.892Z,79.20
2023-08-11T19:33:37.692Z,79.67
2023-08-11T19:36:06.009Z,78.76
2023-08-11T19:38:33.812Z,79.10
2023-08-11T19:41:04.909Z,79.91
2023-08-11T19:43:32.618Z,80.18
2023-08-11T19:46:00.928Z,81.39
2023-08-11T19:48:28.753Z,82.52
2023-08-11T19:50:57.763Z,83.66
2023-08-11T19:53:25.489Z,83.09
2023-08-11T19:55:55.335Z,83.07
2023-08-11T19:58:25.544Z,82.57
2023-08-11T20:00:53.388Z,82.61
2023-08-11T20:03:21.543Z,83.44
2023-08-11T20:05:50.281Z,84.30
2023-08-11T20:08:18.396Z,84.95
2023-08-11T20:10:46.974Z,84.91
2023-08-11T20:13:15.388Z,84.65
2023-08-11T20:15:44.552Z,85.08
2023-08-11T20:18:12.837Z,85.68
2023-08-11T20:20:41.945Z,85.39
2023-08-11T20:23:11.902Z,85.47
2023-08-11T20:25:39.637Z,85.34
2023-08-11T20:28:08.026Z,85.30
2023-08-11T20:30:37.142Z,85.35
2023-08-11T20:33:06.790Z,86.33
2023-08-11T20:35:34.548Z,86.46
2023-08-11T20:38:02.732Z,86.51
2023-08-11T20:40:33.363Z,87.03
2023-08-11T20:43:01.692Z,86.77
2023-08-11T20:45:31.123Z,85.94
2023-08-11T20:48:01.453Z,84.60
2023-08-11T20:50:30.872Z,83.72
2023-08-11T20:52:58.999Z,84.38
2023-08-11T20:55:26.692Z,85.84
2023-08-11T20:57:54.900Z,87.62
2023-08-11T21:00:23.564Z,88.37
2023-08-11T21:02:52.065Z,88.64
2023-08-11T21:05:19.869Z,87.38
2023-08-11T21:07:49.285Z,86.70
2023-08-11T21:10:16.996Z,86.76
2023-08-11T21:12:45.025Z,87.02
2023-08-11T21:15:14.483Z,88.05
2023-08-11T21:17:42.211Z,88.31
2023-08-11T21:20:11.150Z,88.97
2023-08-11T21:22:38.918Z,89.25
2023-08-11T21:25:09.414Z,89.00
2023-08-11T21:27:36.962Z,89.17
2023-08-11T21:30:05.540Z,89.24
2023-08-11T21:32:33.348Z,89.38
2023-08-11T21:35:01.529Z,89.32
2023-08-11T21:37:29.316Z,89.57
2023-08-11T21:39:57.389Z,89.41
2023-08-11T21:42:26.451Z,89.22
2023-08-11T21:44:54.734Z,89.17
2023-08-11T21:47:23.984Z,89.46
2023-08-11T21:49:52.133Z,89.85
2023-08-11T21:52:19.861Z,90.04
2023-08-11T21:54:48.013Z,89.71
2023-08-11T21:57:15.803Z,89.50
2023-08-11T21:59:45.341Z,89.65
2023-08-11T22:02:13.044Z,89.71
2023-08-11T22:04:42.374Z,89.65
2023-08-11T22:07:10.509Z,89.70
2023-08-11T22:09:38.900Z,90.04
2023-08-11T22:12:07.623Z,90.13
2023-08-11T22:14:36.075Z,89.87
2023-08-11T22:17:05.463Z,90.59
2023-08-11T22:19:36.778Z,90.82
2023-08-11T22:22:05.336Z,90.59
2023-08-11T22:24:41.299Z,90.76
2023-08-11T22:27:10.807Z,90.55
2023-08-11T22:29:39.445Z,90.53
2023-08-11T22:32:08.619Z,90.95
2023-08-11T22:34:36.424Z,91.40
2023-08-11T22:37:04.613Z,91.82
2023-08-11T22:39:32.364Z,91.54
2023-08-11T22:42:00.529Z,91.37
2023-08-11T22:44:28.266Z,91.69
2023-08-11T22:46:56.397Z,91.64
2023-08-11T22:49:25.472Z,91.66
2023-08-11T22:51:52.641Z,91.76
2023-08-11T22:54:20.360Z,92.51
2023-08-11T22:56:48.466Z,92.59
2023-08-11T22:59:16.356Z,92.54
2023-08-11T23:01:44.423Z,92.97
2023-08-11T23:04:12.384Z,92.71
2023-08-11T23:06:41.883Z,92.78
2023-08-11T23:09:09.668Z,92.89
2023-08-11T23:11:37.867Z,92.91
2023-08-11T23:14:05.784Z,92.84
2023-08-11T23:16:34.313Z,92.84
2023-08-11T23:19:02.215Z,92.96
2023-08-11T23:21:32.008Z,92.93
2023-08-11T23:24:01.088Z,93.16
2023-08-11T23:26:29.325Z,93.57
2023-08-11T23:28:57.015Z,93.51
2023-08-11T23:31:25.129Z,93.77
2023-08-11T23:33:52.854Z,93.52
2023-08-11T23:36:20.926Z,93.42
2023-08-11T23:38:49.141Z,93.10
2023-08-11T23:41:18.986Z,92.85
2023-08-11T23:43:46.725Z,93.04
2023-08-11T23:46:15.568Z,93.00
2023-08-11T23:48:43.903Z,92.96
2023-08-11T23:51:11.682Z,92.78
2023-08-11T23:53:39.960Z,92.52
2023-08-11T23:56:07.861Z,92.11
2023-08-11T23:58:37.357Z,91.88
